Aviation Digital Data Service (ADDS)

Output produced by METARs form (0654 UTC 24 March 2019)
found at http://www.aviationweather.gov/metar/data/
 
KAIK 240635Z AUTO 00000KT 10SM CLR 06/02 A3032 RMK AO2
KAND 240556Z AUTO 31004KT 10SM CLR 07/01 A3027 RMK AO2 SLP248 T00720006 10156 20067 51002
KAND 240521Z 2406/2506 00000KT P6SM BKN200 
     FM241400 17004KT P6SM FEW250 
     FM241800 21008KT P6SM SKC 
     FM250000 18003KT P6SM BKN150
       
KBNL 240635Z AUTO 00000KT 10SM CLR 05/04 A3030 RMK AO2
KARW 240635Z AUTO 00000KT 10SM CLR 10/09 A3029 RMK AO2
KBBP 240635Z AUTO 00000KT 10SM CLR 02/01 A3030 RMK AO2
KCDN 240635Z AUTO 00000KT 10SM CLR 03/M02 A3030 RMK AO2
KCHS 240556Z 00000KT 10SM FEW250 08/05 A3030 RMK AO2 SLP260 T00780050 10133 20078 51000
KCHS 240521Z 2406/2506 00000KT P6SM FEW250 
     FM241500 15007KT P6SM FEW250 
     FM242000 17011G17KT P6SM FEW250 
     FM250000 16005KT P6SM SCT250
       
KJZI 240635Z AUTO 00000KT 10SM CLR 08/07 A3030 RMK AO2
KCQW 240635Z AUTO 00000KT 10SM CLR 02/01 A3029 RMK AO2
KDCM 240635Z AUTO 00000KT 10SM CLR 05/00 A3029 RMK AO2
KCEU 240554Z AUTO 34003KT 10SM CLR 09/04 A3028 RMK AO2 SLP252 T00890039 10156 20083 50002
KCAE 240556Z 00000KT 9SM SCT250 04/03 A3029 RMK AO2 SLP256 T00390028 10167 20039 51001 $
KCAE 240531Z 2406/2506 00000KT P6SM BKN250 
     FM241500 20008KT P6SM SCT250 
     FM250000 20004KT P6SM FEW050 BKN250
       
KCUB 240553Z AUTO 00000KT 10SM CLR 07/03 A3030 RMK AO2 SLP260 T00670028 10156 20067 50001
KCUB 240531Z 2406/2506 00000KT P6SM BKN250 
     FM241500 20007KT P6SM SCT250 
     FM250000 20003KT P6SM FEW050 BKN250
       
KHYW 240635Z AUTO 00000KT 7SM CLR 01/01 A3031 RMK AO2
KUDG 240556Z AUTO 00000KT 10SM CLR 03/01 A3031 RMK AO2 SLP271 T00330011 10111 20028 51003
KFLO 240553Z AUTO 00000KT 10SM CLR 04/00 A3031 RMK AO2 SLP263 T00440000 10156 20044 51005
KFLO 240520Z 2406/2506 18010KT P6SM FEW250
       
KGGE 240635Z AUTO 00000KT 10SM CLR 03/02 A3032 RMK AO2
KGYH 240635Z AUTO 00000KT 10SM CLR 10/M05 A3026 RMK AO2
KGMU 240553Z AUTO 00000KT 10SM CLR 11/M06 A3028 RMK AO2 SLP251 T01111056 10183 20100 56001
KGMU 240521Z 2406/2506 VRB03KT P6SM BKN200 
     FM241400 26004KT P6SM SCT200 
     FM241800 21010KT P6SM FEW250 
     FM250000 21003KT P6SM BKN150
       
KGRD 240556Z AUTO 00000KT 10SM CLR 05/M01 A3028 RMK AO2 SLP254 T00501006 10144 20044 58003
KGSP 240553Z AUTO 00000KT 10SM CLR 07/M03 A3028 RMK AO2 SLP252 T00671028 10139 20067 55002
KGSP 240521Z 2406/2506 VRB03KT P6SM BKN200 
     FM241400 21005KT P6SM SCT200 
     FM241800 21010KT P6SM FEW250 
     FM250000 20004KT P6SM BKN150
       
KHVS 240635Z AUTO 00000KT 10SM CLR 05/M03 A3029 RMK AO2
KHXD 240635Z AUTO 00000KT 10SM CLR 10/09 A3030 RMK AO2
KCKI 240635Z AUTO 00000KT 10SM CLR 02/02 A3031 RMK AO2
KLKR 240635Z AUTO 00000KT 10SM FEW031 SCT047 03/M01 A3029 RMK AO2
KLUX 240635Z AUTO 16003KT 10SM CLR 06/00 A3028 RMK AO2
KMNI 240635Z AUTO 00000KT 10SM CLR 03/02 A3031 RMK AO2
KMAO 240635Z AUTO 00000KT 10SM CLR 03/00 A3031 RMK AO2
KMKS 240635Z AUTO 00000KT 10SM CLR 04/03 A3030 RMK AO2
KLRO 240635Z AUTO 00000KT 10SM CLR 06/06 A3030 RMK AO2
KMYR 240556Z AUTO 00000KT 10SM CLR 07/04 A3031 RMK AO2 SLP265 T00670044 10139 20061 50002
KMYR 240520Z 2406/2506 17010KT P6SM FEW250
       
KEOE 240635Z AUTO 00000KT 10SM CLR 05/02 A3031 RMK AO2
KCRE 240553Z AUTO 00000KT 10SM CLR 05/04 A3031 RMK AO1 SLP263 T00500044 10128 20050 51003
KCRE 240520Z 2406/2506 17010KT P6SM FEW250
       
KOGB 240553Z AUTO 00000KT 10SM CLR 06/03 A3030 RMK AO2 SLP261 T00610028 10150 20061 51003 $
KOGB 240531Z 2406/2506 00000KT P6SM BKN250 
     FM241500 19008KT P6SM SCT250 
     FM250000 18004KT P6SM FEW050 BKN250
       
KLQK 240635Z AUTO 00000KT 10SM CLR 03/02 A3026 RMK AO2 T00250020
KUZA 240554Z AUTO 00000KT 10SM CLR 03/M01 A3029 RMK AO2 SLP257 T00331006 10133 20033 50001
KSPA 240635Z AUTO 00000KT 10SM CLR 05/00 A3027 RMK AO2
KDYB 240635Z AUTO 00000KT 10SM CLR 05/04 A3031 RMK AO1
KSMS 240635Z AUTO 00000KT 10SM CLR 04/02 A3031 RMK AO2
KRBW 240635Z AUTO 00000KT 10SM CLR 05/03 A3031 RMK AO2
KFDW 240635Z AUTO 12007KT 10SM CLR 11/M05 A3028 RMK AO1